createdAt,value
2022-09-10T00:00:54.794Z,16.09
2022-09-10T00:03:57.844Z,16.17
2022-09-10T00:07:00.573Z,16.10
2022-09-10T00:10:03.620Z,16.00
2022-09-10T00:13:09.403Z,15.94
2022-09-10T00:16:14.380Z,15.90
2022-09-10T00:19:17.727Z,15.88
2022-09-10T00:22:20.671Z,15.84
2022-09-10T00:25:23.366Z,15.82
2022-09-10T00:28:32.588Z,15.72
2022-09-10T00:31:36.492Z,15.70
2022-09-10T00:34:39.568Z,15.69
2022-09-10T00:37:42.562Z,15.71
2022-09-10T00:40:46.361Z,15.71
2022-09-10T00:43:53.934Z,15.73
2022-09-10T00:46:57.683Z,15.74
2022-09-10T00:50:05.633Z,15.81
2022-09-10T00:53:12.822Z,15.80
2022-09-10T00:56:15.855Z,15.84
2022-09-10T00:59:22.362Z,15.89
2022-09-10T01:02:26.119Z,15.92
2022-09-10T01:05:31.749Z,15.96
2022-09-10T01:08:34.527Z,15.98
2022-09-10T01:11:50.312Z,16.02
2022-09-10T01:15:09.347Z,16.00
2022-09-10T01:18:30.344Z,16.01
2022-09-10T01:21:38.722Z,16.05
2022-09-10T01:24:54.314Z,16.03
2022-09-10T01:28:01.980Z,16.06
2022-09-10T01:31:12.069Z,16.07
2022-09-10T01:34:21.423Z,16.07
2022-09-10T01:37:29.260Z,16.08
2022-09-10T01:40:33.611Z,16.12
2022-09-10T01:43:38.036Z,16.11
2022-09-10T01:46:50.685Z,16.07
2022-09-10T01:50:15.330Z,15.98
2022-09-10T01:53:39.604Z,16.04
2022-09-10T01:56:50.728Z,16.03
2022-09-10T02:00:04.369Z,16.02
2022-09-10T02:03:11.368Z,15.91
2022-09-10T02:06:17.361Z,15.98
2022-09-10T02:09:21.215Z,15.95
2022-09-10T02:12:24.870Z,15.97
2022-09-10T02:15:32.545Z,16.00
2022-09-10T02:18:36.182Z,16.06
2022-09-10T02:21:39.148Z,15.96
2022-09-10T02:24:44.881Z,16.13
2022-09-10T02:27:49.030Z,16.18
2022-09-10T02:30:55.052Z,16.14
2022-09-10T02:33:57.780Z,16.14
2022-09-10T02:37:02.779Z,16.15
2022-09-10T02:40:06.626Z,16.20
2022-09-10T02:43:09.410Z,16.23
2022-09-10T02:46:13.825Z,16.28
2022-09-10T02:49:16.563Z,16.31
2022-09-10T02:52:19.295Z,16.36
2022-09-10T02:55:22.005Z,16.35
2022-09-10T02:58:25.307Z,16.37
2022-09-10T03:01:30.115Z,16.39
2022-09-10T03:04:32.956Z,16.41
2022-09-10T03:07:35.692Z,16.37
2022-09-10T03:10:39.855Z,16.36
2022-09-10T03:13:43.443Z,16.36
2022-09-10T03:16:48.276Z,16.36
2022-09-10T03:19:51.391Z,16.32
2022-09-10T03:22:54.161Z,16.36
2022-09-10T03:25:57.263Z,16.38
2022-09-10T03:29:00.365Z,16.38
2022-09-10T03:32:05.229Z,16.41
2022-09-10T03:35:10.099Z,16.44
2022-09-10T03:38:13.764Z,16.46
2022-09-10T03:41:16.973Z,16.46
2022-09-10T03:44:19.774Z,16.40
2022-09-10T03:47:24.041Z,16.39
2022-09-10T03:50:27.200Z,16.32
2022-09-10T03:53:29.901Z,16.33
2022-09-10T03:56:33.231Z,16.32
2022-09-10T03:59:37.038Z,16.31
2022-09-10T04:02:42.218Z,16.32
2022-09-10T04:05:45.019Z,16.33
2022-09-10T04:08:50.522Z,16.33
2022-09-10T04:11:53.216Z,16.34
2022-09-10T04:14:55.993Z,16.35
2022-09-10T04:18:03.099Z,16.34
2022-09-10T04:21:06.299Z,16.35
2022-09-10T04:24:12.145Z,16.37
2022-09-10T04:27:16.723Z,16.38
2022-09-10T04:30:20.011Z,16.39
2022-09-10T04:33:25.094Z,16.40
2022-09-10T04:36:28.323Z,16.44
2022-09-10T04:39:31.015Z,16.45
2022-09-10T04:42:33.832Z,16.45
2022-09-10T04:45:36.596Z,16.46
2022-09-10T04:48:40.879Z,16.47
2022-09-10T04:51:43.571Z,16.47
2022-09-10T04:54:46.727Z,16.50
2022-09-10T04:57:49.543Z,16.52
2022-09-10T05:00:52.484Z,16.51
2022-09-10T05:03:56.814Z,16.52
2022-09-10T05:06:59.692Z,16.48
2022-09-10T05:10:02.426Z,16.44
2022-09-10T05:13:05.225Z,16.51
2022-09-10T05:16:08.739Z,16.52
2022-09-10T05:19:18.078Z,16.52
2022-09-10T05:22:21.753Z,16.52
2022-09-10T05:25:25.449Z,16.53
2022-09-10T05:28:28.662Z,16.52
2022-09-10T05:31:31.990Z,16.55
2022-09-10T05:34:36.155Z,16.56
2022-09-10T05:37:39.278Z,16.54
2022-09-10T05:40:44.671Z,16.57
2022-09-10T05:43:47.481Z,16.59
2022-09-10T05:46:50.248Z,16.62
2022-09-10T05:49:55.293Z,16.60
2022-09-10T05:52:58.050Z,16.64
2022-09-10T05:56:00.958Z,16.66
2022-09-10T05:59:04.419Z,16.64
2022-09-10T06:02:08.181Z,16.67
2022-09-10T06:05:12.770Z,16.71
2022-09-10T06:08:16.397Z,16.75
2022-09-10T06:11:19.101Z,16.77
2022-09-10T06:14:22.575Z,16.79
2022-09-10T06:17:25.368Z,16.78
2022-09-10T06:20:30.272Z,16.80
2022-09-10T06:23:33.523Z,16.82
2022-09-10T06:26:37.070Z,16.81
2022-09-10T06:29:40.072Z,16.81
2022-09-10T06:32:43.185Z,16.82
2022-09-10T06:35:53.828Z,16.85
2022-09-10T06:38:57.697Z,16.88
2022-09-10T06:42:01.043Z,16.86
2022-09-10T06:45:03.960Z,17.02
2022-09-10T06:51:31.637Z,17.43
2022-09-10T06:54:34.378Z,17.67
2022-09-10T06:57:38.295Z,17.95
2022-09-10T07:00:41.845Z,18.13
2022-09-10T07:03:45.122Z,18.29
2022-09-10T07:06:49.338Z,18.43
2022-09-10T07:09:52.059Z,18.43
2022-09-10T07:12:55.062Z,18.36
2022-09-10T07:15:57.970Z,18.27
2022-09-10T07:19:02.240Z,18.06
2022-09-10T07:22:06.474Z,18.05
2022-09-10T07:25:09.997Z,17.97
2022-09-10T07:28:15.276Z,17.85
2022-09-10T07:31:20.861Z,17.68
2022-09-10T07:34:23.856Z,17.58
2022-09-10T07:37:28.324Z,17.50
2022-09-10T07:40:31.075Z,17.49
2022-09-10T07:43:33.923Z,17.45
2022-09-10T07:47:05.434Z,17.42
2022-09-10T07:50:12.096Z,17.43
2022-09-10T07:53:16.264Z,17.45
2022-09-10T07:56:19.545Z,17.44
2022-09-10T07:59:22.317Z,17.37
2022-09-10T08:02:25.991Z,17.33
2022-09-10T08:05:29.116Z,17.30
2022-09-10T08:08:38.252Z,17.13
2022-09-10T08:11:41.567Z,17.08
2022-09-10T08:14:44.310Z,17.06
2022-09-10T08:17:47.086Z,17.12
2022-09-10T08:20:55.097Z,17.20
2022-09-10T08:23:59.749Z,17.26
2022-09-10T08:27:02.613Z,17.31
2022-09-10T08:30:06.303Z,17.36
2022-09-10T08:33:10.673Z,17.33
2022-09-10T08:36:14.651Z,17.39
2022-09-10T08:39:19.106Z,17.48
2022-09-10T08:42:27.498Z,17.60
2022-09-10T08:45:34.039Z,17.76
2022-09-10T08:48:40.866Z,17.90
2022-09-10T08:51:50.073Z,18.10
2022-09-10T08:55:03.199Z,18.46
2022-09-10T08:58:14.260Z,18.87
2022-09-10T09:01:30.398Z,19.23
2022-09-10T09:04:41.676Z,19.55
2022-09-10T09:07:44.874Z,19.69
2022-09-10T09:10:51.683Z,19.97
2022-09-10T09:14:16.572Z,20.05
2022-09-10T09:17:43.771Z,20.23
2022-09-10T09:20:49.820Z,20.44
2022-09-10T09:24:13.265Z,20.65
2022-09-10T09:27:20.163Z,20.84
2022-09-10T09:30:25.801Z,20.99
2022-09-10T09:33:31.011Z,21.01
2022-09-10T09:36:41.123Z,21.11
2022-09-10T09:39:54.052Z,21.07
2022-09-10T09:43:02.240Z,21.04
2022-09-10T09:46:10.593Z,21.05
2022-09-10T09:49:16.154Z,21.15
2022-09-10T09:52:22.468Z,21.31
2022-09-10T09:55:32.933Z,21.50
2022-09-10T09:58:39.993Z,21.52
2022-09-10T10:01:43.364Z,21.48
2022-09-10T10:04:56.202Z,21.52
2022-09-10T10:07:59.096Z,21.41
2022-09-10T10:11:02.415Z,21.46
2022-09-10T10:14:22.939Z,21.66
2022-09-10T10:17:32.542Z,21.88
2022-09-10T10:20:41.534Z,21.97
2022-09-10T10:23:44.581Z,22.08
2022-09-10T10:26:49.281Z,22.21
2022-09-10T10:29:56.476Z,22.22
2022-09-10T10:33:02.890Z,22.19
2022-09-10T10:36:16.309Z,22.17
2022-09-10T10:39:28.632Z,22.24
2022-09-10T10:42:37.855Z,22.45
2022-09-10T10:45:56.085Z,22.62
2022-09-10T10:49:09.877Z,22.58
2022-09-10T10:52:21.594Z,22.71
2022-09-10T10:55:29.224Z,22.61
2022-09-10T10:58:53.950Z,22.28
2022-09-10T11:02:03.701Z,21.93
2022-09-10T11:05:20.402Z,21.61
2022-09-10T11:08:30.403Z,21.28
2022-09-10T11:11:40.152Z,21.13
2022-09-10T11:14:48.751Z,21.07
2022-09-10T11:17:58.419Z,21.18
2022-09-10T11:21:08.919Z,21.32
2022-09-10T11:24:17.246Z,21.52
2022-09-10T11:27:24.583Z,21.60
2022-09-10T11:30:27.271Z,21.64
2022-09-10T11:33:39.451Z,21.91
2022-09-10T11:36:48.018Z,22.22
2022-09-10T11:39:54.011Z,22.47
2022-09-10T11:43:02.324Z,22.81
2022-09-10T11:46:12.770Z,23.15
2022-09-10T11:49:22.536Z,23.56
2022-09-10T11:52:26.844Z,23.56
2022-09-10T11:55:44.187Z,23.34
2022-09-10T11:58:57.918Z,23.07
2022-09-10T12:02:19.500Z,22.63
2022-09-10T12:05:32.664Z,22.14
2022-09-10T12:08:48.510Z,21.56
2022-09-10T12:12:00.564Z,21.11
2022-09-10T12:15:09.455Z,20.96
2022-09-10T12:18:19.736Z,21.00
2022-09-10T12:21:32.437Z,21.16
2022-09-10T12:24:37.518Z,21.26
2022-09-10T12:27:49.099Z,21.38
2022-09-10T12:30:52.836Z,21.41
2022-09-10T12:34:18.002Z,21.42
2022-09-10T12:37:28.210Z,21.50
2022-09-10T12:40:45.357Z,21.58
2022-09-10T12:43:56.811Z,21.72
2022-09-10T12:47:28.898Z,21.96
2022-09-10T12:50:37.298Z,22.09
2022-09-10T12:54:02.580Z,22.07
2022-09-10T12:57:22.136Z,22.11
2022-09-10T13:00:28.045Z,22.17
2022-09-10T13:03:32.034Z,22.10
2022-09-10T13:06:38.583Z,22.11
2022-09-10T13:09:43.196Z,22.29
2022-09-10T13:12:46.823Z,22.44
2022-09-10T13:15:53.453Z,22.73
2022-09-10T13:19:34.654Z,22.57
2022-09-10T13:22:57.572Z,22.21
2022-09-10T13:26:48.691Z,21.93
2022-09-10T13:29:55.573Z,21.91
2022-09-10T13:33:01.892Z,21.95
2022-09-10T13:36:16.858Z,21.81
2022-09-10T13:40:03.737Z,21.62
2022-09-10T13:43:24.954Z,21.52
2022-09-10T13:46:35.223Z,21.57
2022-09-10T13:49:47.408Z,21.76
2022-09-10T13:52:55.283Z,22.06
2022-09-10T13:56:02.747Z,22.26
2022-09-10T13:59:07.716Z,22.31
2022-09-10T14:02:10.979Z,22.23
2022-09-10T14:05:30.671Z,22.18
2022-09-10T14:08:38.506Z,22.37
2022-09-10T14:11:44.062Z,22.59
2022-09-10T14:14:51.421Z,22.64
2022-09-10T14:17:58.425Z,22.58
2022-09-10T14:21:01.548Z,22.59
2022-09-10T14:24:04.335Z,22.55
2022-09-10T14:27:18.549Z,22.46
2022-09-10T14:30:26.590Z,22.49
2022-09-10T14:33:33.132Z,22.58
2022-09-10T14:36:36.032Z,22.61
2022-09-10T14:39:45.220Z,22.56
2022-09-10T14:42:50.741Z,22.51
2022-09-10T14:45:53.614Z,22.39
2022-09-10T14:49:09.542Z,22.09
2022-09-10T14:52:12.869Z,22.05
2022-09-10T14:55:16.851Z,22.15
2022-09-10T14:58:21.086Z,22.16
2022-09-10T15:01:24.570Z,22.22
2022-09-10T15:04:30.200Z,22.33
2022-09-10T15:07:33.293Z,22.41
2022-09-10T15:10:36.168Z,22.48
2022-09-10T15:13:43.586Z,22.53
2022-09-10T15:16:46.603Z,22.52
2022-09-10T15:19:49.922Z,22.51
2022-09-10T15:22:52.550Z,22.49
2022-09-10T15:25:58.241Z,22.41
2022-09-10T15:29:02.598Z,22.32
2022-09-10T15:32:05.806Z,22.27
2022-09-10T15:35:09.583Z,22.25
2022-09-10T15:38:13.669Z,22.18
2022-09-10T15:41:16.999Z,22.19
2022-09-10T15:44:23.459Z,22.17
2022-09-10T15:47:27.150Z,22.23
2022-09-10T15:50:29.893Z,22.23
2022-09-10T15:53:34.060Z,22.26
2022-09-10T15:56:36.789Z,22.29
2022-09-10T15:59:40.823Z,22.35
2022-09-10T16:02:47.266Z,22.27
2022-09-10T16:05:50.354Z,22.18
2022-09-10T16:08:56.609Z,21.98
2022-09-10T16:11:59.444Z,21.99
2022-09-10T16:15:03.738Z,22.03
2022-09-10T16:18:06.532Z,22.07
2022-09-10T16:21:11.746Z,21.96
2022-09-10T16:24:14.440Z,21.67
2022-09-10T16:27:17.663Z,21.46
2022-09-10T16:30:22.694Z,21.27
2022-09-10T16:33:25.536Z,21.16
2022-09-10T16:36:28.372Z,21.04
2022-09-10T16:39:31.075Z,20.98
2022-09-10T16:42:34.193Z,20.90
2022-09-10T16:45:38.251Z,20.86
2022-09-10T16:48:42.862Z,20.75
2022-09-10T16:51:47.220Z,20.67
2022-09-10T16:54:50.097Z,20.53
2022-09-10T16:57:52.910Z,20.48
2022-09-10T17:00:58.764Z,20.42
2022-09-10T17:04:03.276Z,20.33
2022-09-10T17:07:06.904Z,20.28
2022-09-10T17:10:10.615Z,20.22
2022-09-10T17:13:14.038Z,20.15
2022-09-10T17:16:25.191Z,20.13
2022-09-10T17:19:29.321Z,20.10
2022-09-10T17:22:32.485Z,20.06
2022-09-10T17:25:36.179Z,20.02
2022-09-10T17:28:40.456Z,19.99
2022-09-10T17:31:46.531Z,19.92
2022-09-10T17:34:51.499Z,19.73
2022-09-10T17:37:54.189Z,19.62
2022-09-10T17:41:00.155Z,19.51
2022-09-10T17:44:03.465Z,19.28
2022-09-10T17:47:09.624Z,19.18
2022-09-10T17:50:12.448Z,19.18
2022-09-10T17:53:15.665Z,19.12
2022-09-10T17:56:20.275Z,19.08
2022-09-10T17:59:25.141Z,19.13
2022-09-10T18:02:31.278Z,19.13
2022-09-10T18:05:39.685Z,19.05
2022-09-10T18:08:44.269Z,19.11
2022-09-10T18:11:47.513Z,19.01
2022-09-10T18:14:50.758Z,19.09
2022-09-10T18:17:55.974Z,19.05
2022-09-10T18:21:00.396Z,19.05
2022-09-10T18:24:05.270Z,19.04
2022-09-10T18:27:08.412Z,19.04
2022-09-10T18:30:12.092Z,18.94
2022-09-10T18:33:16.336Z,18.87
2022-09-10T18:36:20.425Z,18.81
2022-09-10T18:39:24.872Z,18.79
2022-09-10T18:42:27.782Z,18.79
2022-09-10T18:45:30.480Z,18.78
2022-09-10T18:48:35.110Z,18.73
2022-09-10T18:51:38.160Z,18.66
2022-09-10T18:54:45.894Z,18.62
2022-09-10T18:57:49.274Z,18.60
2022-09-10T19:00:55.445Z,18.61
2022-09-10T19:04:03.633Z,18.58
2022-09-10T19:07:06.796Z,18.57
2022-09-10T19:10:09.743Z,18.55
2022-09-10T19:13:12.497Z,18.53
2022-09-10T19:16:15.443Z,18.50
2022-09-10T19:19:22.248Z,18.48
2022-09-10T19:22:24.966Z,18.46
2022-09-10T19:25:27.991Z,18.48
2022-09-10T19:28:33.502Z,18.51
2022-09-10T19:31:36.540Z,18.43
2022-09-10T19:34:40.845Z,18.39
2022-09-10T19:37:43.587Z,18.33
2022-09-10T19:40:47.011Z,18.30
2022-09-10T19:43:51.283Z,18.26
2022-09-10T19:46:53.996Z,18.27
2022-09-10T19:49:59.093Z,18.27
2022-09-10T19:53:01.844Z,18.25
2022-09-10T19:56:06.288Z,18.21
2022-09-10T19:59:09.893Z,18.16
2022-09-10T20:02:12.736Z,18.15
2022-09-10T20:05:17.553Z,18.13
2022-09-10T20:08:20.292Z,18.14
2022-09-10T20:11:24.901Z,18.14
2022-09-10T20:14:28.238Z,18.14
2022-09-10T20:17:31.204Z,18.13
2022-09-10T20:20:35.351Z,18.12
2022-09-10T20:23:38.228Z,18.17
2022-09-10T20:26:41.783Z,18.10
2022-09-10T20:29:46.280Z,18.08
2022-09-10T20:32:49.032Z,18.09
2022-09-10T20:35:53.067Z,18.09
2022-09-10T20:38:57.728Z,18.12
2022-09-10T20:42:00.584Z,18.10
2022-09-10T20:45:03.499Z,18.08
2022-09-10T20:48:06.241Z,18.06
2022-09-10T20:51:10.788Z,18.03
2022-09-10T20:54:15.266Z,18.04
2022-09-10T20:57:17.993Z,18.11
2022-09-10T21:00:20.779Z,18.07
2022-09-10T21:03:23.491Z,17.97
2022-09-10T21:06:30.208Z,17.92
2022-09-10T21:09:32.938Z,17.87
2022-09-10T21:12:35.625Z,17.85
2022-09-10T21:15:38.610Z,17.87
2022-09-10T21:18:42.668Z,17.92
2022-09-10T21:21:49.082Z,17.89
2022-09-10T21:24:51.784Z,17.97
2022-09-10T21:27:54.797Z,18.01
2022-09-10T21:31:03.256Z,17.92
2022-09-10T21:34:06.416Z,17.96
2022-09-10T21:37:10.930Z,18.02
2022-09-10T21:40:13.716Z,18.01
2022-09-10T21:43:16.540Z,18.03
2022-09-10T21:46:19.695Z,17.95
2022-09-10T21:49:22.428Z,18.04
2022-09-10T21:52:26.501Z,18.04
2022-09-10T21:55:29.166Z,17.97
2022-09-10T21:58:34.246Z,17.97
2022-09-10T22:01:37.302Z,18.00
2022-09-10T22:04:40.027Z,18.01
2022-09-10T22:07:44.163Z,18.03
2022-09-10T22:10:47.472Z,18.04
2022-09-10T22:13:52.886Z,18.06
2022-09-10T22:16:56.104Z,18.07
2022-09-10T22:19:58.791Z,18.05
2022-09-10T22:23:03.537Z,18.05
2022-09-10T22:26:08.722Z,18.06
2022-09-10T22:29:12.874Z,18.05
2022-09-10T22:32:15.984Z,18.04
2022-09-10T22:35:18.976Z,18.03
2022-09-10T22:38:23.011Z,18.02
2022-09-10T22:41:27.406Z,17.96
2022-09-10T22:44:30.109Z,17.95
2022-09-10T22:47:33.127Z,17.92
2022-09-10T22:50:35.904Z,17.92
2022-09-10T22:53:41.794Z,17.92
2022-09-10T22:56:45.120Z,17.86
2022-09-10T22:59:47.844Z,17.81
2022-09-10T23:02:50.573Z,17.78
2022-09-10T23:06:03.477Z,17.78
2022-09-10T23:09:09.672Z,17.79
2022-09-10T23:12:12.346Z,17.78
2022-09-10T23:15:15.791Z,17.81
2022-09-10T23:18:18.867Z,17.80
2022-09-10T23:21:23.921Z,17.81
2022-09-10T23:24:28.521Z,17.81
2022-09-10T23:27:31.278Z,17.82
2022-09-10T23:30:36.209Z,17.82
2022-09-10T23:33:38.925Z,17.84
2022-09-10T23:36:45.019Z,17.75
2022-09-10T23:39:49.413Z,17.70
2022-09-10T23:42:52.110Z,17.68
2022-09-10T23:45:55.439Z,17.58
2022-09-10T23:48:58.460Z,17.47
2022-09-10T23:52:01.472Z,17.37
2022-09-10T23:55:06.411Z,17.44
2022-09-10T23:58:09.081Z,17.15
